sensor_id;sensor_type;location;lat;lon;timestamp;P1;durP1;ratioP1;P2;durP2;ratioP2
68484;SDS011;55472;50.060;21.960;2023-07-02T00:02:20;20.83;;;14.37;;
68484;SDS011;55472;50.060;21.960;2023-07-02T00:04:47;22.17;;;15.52;;
68484;SDS011;55472;50.060;21.960;2023-07-02T00:07:13;22.10;;;16.17;;
68484;SDS011;55472;50.060;21.960;2023-07-02T00:09:40;23.83;;;15.98;;
68484;SDS011;55472;50.060;21.960;2023-07-02T00:12:06;22.23;;;16.02;;
68484;SDS011;55472;50.060;21.960;2023-07-02T00:14:34;22.57;;;15.77;;
68484;SDS011;55472;50.060;21.960;2023-07-02T00:16:59;24.50;;;16.75;;
68484;SDS011;55472;50.060;21.960;2023-07-02T00:19:26;24.65;;;16.33;;
68484;SDS011;55472;50.060;21.960;2023-07-02T00:21:52;22.80;;;15.70;;
68484;SDS011;55472;50.060;21.960;2023-07-02T00:24:22;23.88;;;15.93;;
68484;SDS011;55472;50.060;21.960;2023-07-02T00:26:48;22.03;;;15.20;;
68484;SDS011;55472;50.060;21.960;2023-07-02T00:29:14;22.75;;;15.48;;
68484;SDS011;55472;50.060;21.960;2023-07-02T00:31:40;24.58;;;15.35;;
68484;SDS011;55472;50.060;21.960;2023-07-02T00:34:06;21.92;;;14.77;;
68484;SDS011;55472;50.060;21.960;2023-07-02T00:36:32;22.40;;;14.98;;
68484;SDS011;55472;50.060;21.960;2023-07-02T00:38:59;20.10;;;14.13;;
68484;SDS011;55472;50.060;21.960;2023-07-02T00:41:25;22.48;;;14.98;;
68484;SDS011;55472;50.060;21.960;2023-07-02T00:43:52;21.77;;;14.45;;
68484;SDS011;55472;50.060;21.960;2023-07-02T00:46:20;20.80;;;14.32;;
68484;SDS011;55472;50.060;21.960;2023-07-02T00:48:54;20.75;;;14.68;;
68484;SDS011;55472;50.060;21.960;2023-07-02T00:51:22;21.80;;;14.47;;
68484;SDS011;55472;50.060;21.960;2023-07-02T00:53:51;23.13;;;14.90;;
68484;SDS011;55472;50.060;21.960;2023-07-02T00:56:20;22.45;;;15.50;;
68484;SDS011;55472;50.060;21.960;2023-07-02T00:58:48;21.67;;;14.52;;
68484;SDS011;55472;50.060;21.960;2023-07-02T01:03:58;24.43;;;15.80;;
68484;SDS011;55472;50.060;21.960;2023-07-02T01:06:30;21.50;;;15.13;;
68484;SDS011;55472;50.060;21.960;2023-07-02T01:09:00;25.50;;;16.27;;
68484;SDS011;55472;50.060;21.960;2023-07-02T01:11:30;22.52;;;15.77;;
68484;SDS011;55472;50.060;21.960;2023-07-02T01:14:05;21.52;;;15.50;;
68484;SDS011;55472;50.060;21.960;2023-07-02T01:16:44;21.27;;;14.70;;
68484;SDS011;55472;50.060;21.960;2023-07-02T01:19:15;22.95;;;15.68;;
68484;SDS011;55472;50.060;21.960;2023-07-02T01:21:47;24.10;;;15.77;;
68484;SDS011;55472;50.060;21.960;2023-07-02T01:24:18;23.48;;;15.73;;
68484;SDS011;55472;50.060;21.960;2023-07-02T01:26:46;21.52;;;15.50;;
68484;SDS011;55472;50.060;21.960;2023-07-02T01:29:19;22.53;;;15.27;;
68484;SDS011;55472;50.060;21.960;2023-07-02T01:31:46;23.15;;;15.77;;
68484;SDS011;55472;50.060;21.960;2023-07-02T01:34:13;20.33;;;14.70;;
68484;SDS011;55472;50.060;21.960;2023-07-02T01:36:40;21.95;;;15.25;;
68484;SDS011;55472;50.060;21.960;2023-07-02T01:39:07;21.05;;;15.00;;
68484;SDS011;55472;50.060;21.960;2023-07-02T01:41:54;25.77;;;16.10;;
68484;SDS011;55472;50.060;21.960;2023-07-02T01:44:21;21.02;;;14.75;;
68484;SDS011;55472;50.060;21.960;2023-07-02T01:46:47;20.15;;;15.10;;
68484;SDS011;55472;50.060;21.960;2023-07-02T01:49:14;23.05;;;15.48;;
68484;SDS011;55472;50.060;21.960;2023-07-02T01:51:44;21.75;;;15.13;;
68484;SDS011;55472;50.060;21.960;2023-07-02T01:54:14;22.37;;;15.07;;
68484;SDS011;55472;50.060;21.960;2023-07-02T01:56:40;22.40;;;14.60;;
68484;SDS011;55472;50.060;21.960;2023-07-02T01:59:07;21.88;;;15.73;;
68484;SDS011;55472;50.060;21.960;2023-07-02T02:01:33;19.67;;;14.68;;
68484;SDS011;55472;50.060;21.960;2023-07-02T02:03:59;21.88;;;15.30;;
68484;SDS011;55472;50.060;21.960;2023-07-02T02:06:25;25.00;;;14.93;;
68484;SDS011;55472;50.060;21.960;2023-07-02T02:08:51;21.75;;;14.38;;
68484;SDS011;55472;50.060;21.960;2023-07-02T02:11:17;22.42;;;14.45;;
68484;SDS011;55472;50.060;21.960;2023-07-02T02:13:43;21.63;;;14.30;;
68484;SDS011;55472;50.060;21.960;2023-07-02T02:16:09;20.00;;;14.48;;
68484;SDS011;55472;50.060;21.960;2023-07-02T02:18:36;20.23;;;14.27;;
68484;SDS011;55472;50.060;21.960;2023-07-02T02:21:02;18.95;;;14.38;;
68484;SDS011;55472;50.060;21.960;2023-07-02T02:23:28;20.23;;;14.38;;
68484;SDS011;55472;50.060;21.960;2023-07-02T02:25:54;19.42;;;14.57;;
68484;SDS011;55472;50.060;21.960;2023-07-02T02:28:21;22.07;;;14.77;;
68484;SDS011;55472;50.060;21.960;2023-07-02T02:30:47;21.08;;;14.75;;
68484;SDS011;55472;50.060;21.960;2023-07-02T02:33:13;22.95;;;15.43;;
68484;SDS011;55472;50.060;21.960;2023-07-02T02:35:39;20.92;;;14.60;;
68484;SDS011;55472;50.060;21.960;2023-07-02T02:38:05;18.30;;;13.88;;
68484;SDS011;55472;50.060;21.960;2023-07-02T02:40:31;19.83;;;14.33;;
68484;SDS011;55472;50.060;21.960;2023-07-02T02:42:57;22.05;;;14.25;;
68484;SDS011;55472;50.060;21.960;2023-07-02T02:45:24;21.30;;;15.40;;
68484;SDS011;55472;50.060;21.960;2023-07-02T02:47:50;22.77;;;15.38;;
68484;SDS011;55472;50.060;21.960;2023-07-02T02:50:16;20.92;;;14.70;;
68484;SDS011;55472;50.060;21.960;2023-07-02T02:52:42;24.10;;;15.27;;
68484;SDS011;55472;50.060;21.960;2023-07-02T02:55:08;22.95;;;14.80;;
68484;SDS011;55472;50.060;21.960;2023-07-02T02:57:36;33.72;;;20.90;;
68484;SDS011;55472;50.060;21.960;2023-07-02T03:00:02;25.25;;;16.95;;
68484;SDS011;55472;50.060;21.960;2023-07-02T03:02:30;22.33;;;14.95;;
68484;SDS011;55472;50.060;21.960;2023-07-02T03:04:56;20.80;;;14.17;;
68484;SDS011;55472;50.060;21.960;2023-07-02T03:07:26;20.58;;;14.88;;
68484;SDS011;55472;50.060;21.960;2023-07-02T03:09:52;22.83;;;15.45;;
68484;SDS011;55472;50.060;21.960;2023-07-02T03:12:18;24.05;;;14.60;;
68484;SDS011;55472;50.060;21.960;2023-07-02T03:14:44;24.08;;;15.23;;
68484;SDS011;55472;50.060;21.960;2023-07-02T03:17:13;25.53;;;15.60;;
68484;SDS011;55472;50.060;21.960;2023-07-02T03:19:39;24.23;;;15.00;;
68484;SDS011;55472;50.060;21.960;2023-07-02T03:22:05;19.33;;;14.35;;
68484;SDS011;55472;50.060;21.960;2023-07-02T03:24:31;21.02;;;14.63;;
68484;SDS011;55472;50.060;21.960;2023-07-02T03:26:57;25.38;;;14.90;;
68484;SDS011;55472;50.060;21.960;2023-07-02T03:29:23;23.70;;;14.53;;
68484;SDS011;55472;50.060;21.960;2023-07-02T03:31:50;21.00;;;15.35;;
68484;SDS011;55472;50.060;21.960;2023-07-02T03:34:16;20.65;;;14.85;;
68484;SDS011;55472;50.060;21.960;2023-07-02T03:36:42;21.02;;;14.43;;
68484;SDS011;55472;50.060;21.960;2023-07-02T03:39:09;22.20;;;15.77;;
68484;SDS011;55472;50.060;21.960;2023-07-02T03:41:36;21.83;;;15.00;;
68484;SDS011;55472;50.060;21.960;2023-07-02T03:44:02;23.85;;;15.15;;
68484;SDS011;55472;50.060;21.960;2023-07-02T03:46:28;21.17;;;14.73;;
68484;SDS011;55472;50.060;21.960;2023-07-02T03:48:56;24.52;;;14.88;;
68484;SDS011;55472;50.060;21.960;2023-07-02T03:51:23;22.05;;;14.80;;
68484;SDS011;55472;50.060;21.960;2023-07-02T03:53:48;20.23;;;14.10;;
68484;SDS011;55472;50.060;21.960;2023-07-02T03:56:15;19.25;;;14.18;;
68484;SDS011;55472;50.060;21.960;2023-07-02T03:58:41;23.98;;;14.57;;
68484;SDS011;55472;50.060;21.960;2023-07-02T04:01:07;20.10;;;14.25;;
68484;SDS011;55472;50.060;21.960;2023-07-02T04:03:33;20.02;;;14.60;;
68484;SDS011;55472;50.060;21.960;2023-07-02T04:06:00;21.00;;;14.63;;
68484;SDS011;55472;50.060;21.960;2023-07-02T04:08:26;19.02;;;13.88;;
68484;SDS011;55472;50.060;21.960;2023-07-02T04:10:54;21.58;;;15.05;;
68484;SDS011;55472;50.060;21.960;2023-07-02T04:13:20;19.63;;;14.20;;
68484;SDS011;55472;50.060;21.960;2023-07-02T04:15:46;21.40;;;14.70;;
68484;SDS011;55472;50.060;21.960;2023-07-02T04:18:12;25.10;;;15.53;;
68484;SDS011;55472;50.060;21.960;2023-07-02T04:20:39;20.35;;;15.02;;
68484;SDS011;55472;50.060;21.960;2023-07-02T04:23:05;21.80;;;15.02;;
68484;SDS011;55472;50.060;21.960;2023-07-02T04:25:32;23.42;;;15.32;;
68484;SDS011;55472;50.060;21.960;2023-07-02T04:27:58;20.20;;;15.30;;
68484;SDS011;55472;50.060;21.960;2023-07-02T04:30:25;22.90;;;16.13;;
68484;SDS011;55472;50.060;21.960;2023-07-02T04:32:51;23.52;;;16.02;;
68484;SDS011;55472;50.060;21.960;2023-07-02T04:35:18;24.73;;;16.02;;
68484;SDS011;55472;50.060;21.960;2023-07-02T04:37:44;22.83;;;15.63;;
68484;SDS011;55472;50.060;21.960;2023-07-02T04:40:10;23.80;;;15.80;;
68484;SDS011;55472;50.060;21.960;2023-07-02T04:42:41;21.43;;;15.17;;
68484;SDS011;55472;50.060;21.960;2023-07-02T04:45:12;24.33;;;16.75;;
68484;SDS011;55472;50.060;21.960;2023-07-02T04:47:44;21.15;;;16.15;;
68484;SDS011;55472;50.060;21.960;2023-07-02T04:50:10;20.88;;;15.68;;
68484;SDS011;55472;50.060;21.960;2023-07-02T04:52:37;21.90;;;16.02;;
68484;SDS011;55472;50.060;21.960;2023-07-02T04:55:04;23.90;;;15.07;;
68484;SDS011;55472;50.060;21.960;2023-07-02T04:57:31;22.10;;;15.90;;
68484;SDS011;55472;50.060;21.960;2023-07-02T04:59:58;20.77;;;14.88;;
68484;SDS011;55472;50.060;21.960;2023-07-02T05:02:23;22.10;;;15.88;;
68484;SDS011;55472;50.060;21.960;2023-07-02T05:04:50;23.67;;;15.37;;
68484;SDS011;55472;50.060;21.960;2023-07-02T05:07:16;19.75;;;14.82;;
68484;SDS011;55472;50.060;21.960;2023-07-02T05:09:42;20.25;;;15.00;;
68484;SDS011;55472;50.060;21.960;2023-07-02T05:12:09;21.38;;;15.55;;
68484;SDS011;55472;50.060;21.960;2023-07-02T05:14:35;19.77;;;14.95;;
68484;SDS011;55472;50.060;21.960;2023-07-02T05:17:01;20.27;;;14.90;;
68484;SDS011;55472;50.060;21.960;2023-07-02T05:19:28;21.02;;;15.27;;
68484;SDS011;55472;50.060;21.960;2023-07-02T05:21:54;20.98;;;15.15;;
68484;SDS011;55472;50.060;21.960;2023-07-02T05:24:20;20.23;;;14.38;;
68484;SDS011;55472;50.060;21.960;2023-07-02T05:26:47;20.63;;;14.45;;
68484;SDS011;55472;50.060;21.960;2023-07-02T05:29:13;21.53;;;14.17;;
68484;SDS011;55472;50.060;21.960;2023-07-02T05:31:39;19.40;;;13.50;;
68484;SDS011;55472;50.060;21.960;2023-07-02T05:34:06;18.00;;;13.60;;
68484;SDS011;55472;50.060;21.960;2023-07-02T05:36:32;20.42;;;14.43;;
68484;SDS011;55472;50.060;21.960;2023-07-02T05:38:59;20.08;;;14.00;;
68484;SDS011;55472;50.060;21.960;2023-07-02T05:41:26;20.03;;;14.23;;
68484;SDS011;55472;50.060;21.960;2023-07-02T05:43:59;17.60;;;13.40;;
68484;SDS011;55472;50.060;21.960;2023-07-02T05:46:26;19.55;;;13.18;;
68484;SDS011;55472;50.060;21.960;2023-07-02T05:48:51;18.48;;;13.20;;
68484;SDS011;55472;50.060;21.960;2023-07-02T05:51:21;19.73;;;14.23;;
68484;SDS011;55472;50.060;21.960;2023-07-02T05:53:49;19.23;;;13.10;;
68484;SDS011;55472;50.060;21.960;2023-07-02T05:56:16;16.90;;;13.18;;
68484;SDS011;55472;50.060;21.960;2023-07-02T05:58:44;16.10;;;12.57;;
68484;SDS011;55472;50.060;21.960;2023-07-02T06:01:12;15.57;;;12.40;;
68484;SDS011;55472;50.060;21.960;2023-07-02T06:03:39;16.42;;;11.98;;
68484;SDS011;55472;50.060;21.960;2023-07-02T06:06:05;17.10;;;12.47;;
68484;SDS011;55472;50.060;21.960;2023-07-02T06:08:31;14.50;;;11.77;;
68484;SDS011;55472;50.060;21.960;2023-07-02T06:10:58;14.82;;;11.70;;
68484;SDS011;55472;50.060;21.960;2023-07-02T06:13:24;15.40;;;12.23;;
68484;SDS011;55472;50.060;21.960;2023-07-02T06:15:50;15.93;;;12.10;;
68484;SDS011;55472;50.060;21.960;2023-07-02T06:18:16;14.80;;;11.60;;
68484;SDS011;55472;50.060;21.960;2023-07-02T06:20:43;19.02;;;14.55;;
68484;SDS011;55472;50.060;21.960;2023-07-02T06:23:09;16.05;;;12.23;;
68484;SDS011;55472;50.060;21.960;2023-07-02T06:25:35;16.05;;;11.90;;
68484;SDS011;55472;50.060;21.960;2023-07-02T06:28:01;15.15;;;11.48;;
68484;SDS011;55472;50.060;21.960;2023-07-02T06:30:28;16.40;;;12.27;;
68484;SDS011;55472;50.060;21.960;2023-07-02T06:32:54;14.82;;;11.32;;
68484;SDS011;55472;50.060;21.960;2023-07-02T06:35:21;15.70;;;11.25;;
68484;SDS011;55472;50.060;21.960;2023-07-02T06:37:47;15.90;;;11.18;;
68484;SDS011;55472;50.060;21.960;2023-07-02T06:40:13;18.23;;;11.15;;
68484;SDS011;55472;50.060;21.960;2023-07-02T06:42:40;14.30;;;10.43;;
68484;SDS011;55472;50.060;21.960;2023-07-02T06:45:06;16.23;;;10.68;;
68484;SDS011;55472;50.060;21.960;2023-07-02T06:47:33;14.93;;;10.32;;
68484;SDS011;55472;50.060;21.960;2023-07-02T06:49:59;13.82;;;10.57;;
68484;SDS011;55472;50.060;21.960;2023-07-02T06:52:25;18.55;;;11.57;;
68484;SDS011;55472;50.060;21.960;2023-07-02T06:54:52;14.23;;;10.93;;
68484;SDS011;55472;50.060;21.960;2023-07-02T06:57:18;15.40;;;10.52;;
68484;SDS011;55472;50.060;21.960;2023-07-02T06:59:44;14.75;;;10.38;;
68484;SDS011;55472;50.060;21.960;2023-07-02T07:02:10;13.45;;;9.70;;
68484;SDS011;55472;50.060;21.960;2023-07-02T07:04:37;15.05;;;9.77;;
68484;SDS011;55472;50.060;21.960;2023-07-02T07:07:03;13.20;;;9.80;;
68484;SDS011;55472;50.060;21.960;2023-07-02T07:09:29;12.10;;;9.32;;
68484;SDS011;55472;50.060;21.960;2023-07-02T07:11:56;13.25;;;9.43;;
68484;SDS011;55472;50.060;21.960;2023-07-02T07:14:22;12.10;;;8.43;;
68484;SDS011;55472;50.060;21.960;2023-07-02T07:16:48;12.18;;;7.47;;
68484;SDS011;55472;50.060;21.960;2023-07-02T07:19:15;10.93;;;8.03;;
68484;SDS011;55472;50.060;21.960;2023-07-02T07:21:42;10.88;;;7.55;;
68484;SDS011;55472;50.060;21.960;2023-07-02T07:24:09;15.13;;;7.97;;
68484;SDS011;55472;50.060;21.960;2023-07-02T07:26:35;11.18;;;7.63;;
68484;SDS011;55472;50.060;21.960;2023-07-02T07:29:01;10.55;;;7.10;;
68484;SDS011;55472;50.060;21.960;2023-07-02T07:31:29;10.27;;;7.07;;
68484;SDS011;55472;50.060;21.960;2023-07-02T07:33:55;10.75;;;7.70;;
68484;SDS011;55472;50.060;21.960;2023-07-02T07:36:21;13.40;;;7.63;;
68484;SDS011;55472;50.060;21.960;2023-07-02T07:38:48;10.73;;;7.10;;
68484;SDS011;55472;50.060;21.960;2023-07-02T07:41:14;11.77;;;7.60;;
68484;SDS011;55472;50.060;21.960;2023-07-02T07:43:40;11.73;;;7.00;;
68484;SDS011;55472;50.060;21.960;2023-07-02T07:46:06;10.63;;;6.93;;
68484;SDS011;55472;50.060;21.960;2023-07-02T07:48:32;10.15;;;7.05;;
68484;SDS011;55472;50.060;21.960;2023-07-02T07:50:58;12.15;;;7.13;;
68484;SDS011;55472;50.060;21.960;2023-07-02T07:53:25;12.53;;;7.30;;
68484;SDS011;55472;50.060;21.960;2023-07-02T07:55:51;9.43;;;6.80;;
68484;SDS011;55472;50.060;21.960;2023-07-02T07:58:17;10.27;;;6.70;;
68484;SDS011;55472;50.060;21.960;2023-07-02T08:00:43;12.48;;;6.50;;
68484;SDS011;55472;50.060;21.960;2023-07-02T08:03:09;12.25;;;6.30;;
68484;SDS011;55472;50.060;21.960;2023-07-02T08:05:36;9.40;;;6.13;;
68484;SDS011;55472;50.060;21.960;2023-07-02T08:08:02;8.82;;;5.97;;
68484;SDS011;55472;50.060;21.960;2023-07-02T08:10:28;8.55;;;6.38;;
68484;SDS011;55472;50.060;21.960;2023-07-02T08:12:55;10.23;;;6.25;;
68484;SDS011;55472;50.060;21.960;2023-07-02T08:15:21;11.13;;;6.65;;
68484;SDS011;55472;50.060;21.960;2023-07-02T08:17:48;9.73;;;6.47;;
68484;SDS011;55472;50.060;21.960;2023-07-02T08:20:15;11.10;;;6.25;;
68484;SDS011;55472;50.060;21.960;2023-07-02T08:22:42;9.63;;;6.50;;
68484;SDS011;55472;50.060;21.960;2023-07-02T08:25:08;12.73;;;6.50;;
68484;SDS011;55472;50.060;21.960;2023-07-02T08:27:34;11.68;;;6.60;;
68484;SDS011;55472;50.060;21.960;2023-07-02T08:30:01;8.47;;;6.43;;
68484;SDS011;55472;50.060;21.960;2023-07-02T08:32:27;11.80;;;6.32;;
68484;SDS011;55472;50.060;21.960;2023-07-02T08:34:53;8.95;;;6.05;;
68484;SDS011;55472;50.060;21.960;2023-07-02T08:37:21;9.93;;;5.78;;
68484;SDS011;55472;50.060;21.960;2023-07-02T08:39:48;8.40;;;5.70;;
68484;SDS011;55472;50.060;21.960;2023-07-02T08:42:14;9.03;;;5.80;;
68484;SDS011;55472;50.060;21.960;2023-07-02T08:44:41;10.00;;;5.75;;
68484;SDS011;55472;50.060;21.960;2023-07-02T08:47:11;8.13;;;5.25;;
68484;SDS011;55472;50.060;21.960;2023-07-02T08:49:37;7.50;;;5.47;;
68484;SDS011;55472;50.060;21.960;2023-07-02T08:52:05;12.02;;;5.60;;
68484;SDS011;55472;50.060;21.960;2023-07-02T08:54:31;8.40;;;5.33;;
68484;SDS011;55472;50.060;21.960;2023-07-02T08:56:58;8.98;;;5.53;;
68484;SDS011;55472;50.060;21.960;2023-07-02T08:59:25;8.68;;;5.57;;
68484;SDS011;55472;50.060;21.960;2023-07-02T09:01:52;9.13;;;5.38;;
68484;SDS011;55472;50.060;21.960;2023-07-02T09:06:50;8.07;;;5.37;;
68484;SDS011;55472;50.060;21.960;2023-07-02T09:09:28;8.65;;;5.40;;
68484;SDS011;55472;50.060;21.960;2023-07-02T09:11:55;9.63;;;5.07;;
68484;SDS011;55472;50.060;21.960;2023-07-02T09:14:28;9.55;;;5.32;;
68484;SDS011;55472;50.060;21.960;2023-07-02T09:19:36;7.90;;;5.07;;
68484;SDS011;55472;50.060;21.960;2023-07-02T09:22:16;7.22;;;4.88;;
68484;SDS011;55472;50.060;21.960;2023-07-02T09:24:50;8.00;;;4.80;;
68484;SDS011;55472;50.060;21.960;2023-07-02T09:27:21;7.60;;;4.70;;
68484;SDS011;55472;50.060;21.960;2023-07-02T09:29:50;7.60;;;4.82;;
68484;SDS011;55472;50.060;21.960;2023-07-02T09:32:24;9.03;;;5.27;;
68484;SDS011;55472;50.060;21.960;2023-07-02T09:34:53;7.53;;;4.78;;
68484;SDS011;55472;50.060;21.960;2023-07-02T09:37:21;8.45;;;4.75;;
68484;SDS011;55472;50.060;21.960;2023-07-02T09:39:49;8.00;;;4.80;;
68484;SDS011;55472;50.060;21.960;2023-07-02T09:42:20;9.38;;;4.85;;
68484;SDS011;55472;50.060;21.960;2023-07-02T09:44:47;8.17;;;4.90;;
68484;SDS011;55472;50.060;21.960;2023-07-02T09:47:17;8.43;;;4.80;;
68484;SDS011;55472;50.060;21.960;2023-07-02T09:49:49;7.75;;;5.00;;
68484;SDS011;55472;50.060;21.960;2023-07-02T09:52:21;8.55;;;5.35;;
68484;SDS011;55472;50.060;21.960;2023-07-02T09:54:47;8.82;;;5.00;;
68484;SDS011;55472;50.060;21.960;2023-07-02T09:57:14;9.40;;;4.93;;
68484;SDS011;55472;50.060;21.960;2023-07-02T09:59:40;7.82;;;4.90;;
68484;SDS011;55472;50.060;21.960;2023-07-02T10:02:08;7.68;;;4.93;;
68484;SDS011;55472;50.060;21.960;2023-07-02T10:04:45;8.02;;;4.88;;
68484;SDS011;55472;50.060;21.960;2023-07-02T10:07:12;10.88;;;5.10;;
68484;SDS011;55472;50.060;21.960;2023-07-02T10:09:52;7.93;;;5.20;;
68484;SDS011;55472;50.060;21.960;2023-07-02T10:14:50;9.82;;;5.20;;
68484;SDS011;55472;50.060;21.960;2023-07-02T10:20:00;8.32;;;4.25;;
68484;SDS011;55472;50.060;21.960;2023-07-02T10:22:49;8.50;;;4.47;;
68484;SDS011;55472;50.060;21.960;2023-07-02T10:25:25;7.72;;;4.43;;
68484;SDS011;55472;50.060;21.960;2023-07-02T10:27:53;7.13;;;4.28;;
68484;SDS011;55472;50.060;21.960;2023-07-02T10:30:30;7.22;;;4.30;;
68484;SDS011;55472;50.060;21.960;2023-07-02T10:35:37;7.57;;;4.60;;
68484;SDS011;55472;50.060;21.960;2023-07-02T10:38:13;7.93;;;4.60;;
68484;SDS011;55472;50.060;21.960;2023-07-02T10:40:41;9.75;;;4.60;;
68484;SDS011;55472;50.060;21.960;2023-07-02T10:43:08;8.15;;;4.32;;
68484;SDS011;55472;50.060;21.960;2023-07-02T10:45:35;8.07;;;4.65;;
68484;SDS011;55472;50.060;21.960;2023-07-02T10:48:02;9.93;;;4.83;;
68484;SDS011;55472;50.060;21.960;2023-07-02T10:50:30;8.07;;;4.47;;
68484;SDS011;55472;50.060;21.960;2023-07-02T10:52:59;8.07;;;4.35;;
68484;SDS011;55472;50.060;21.960;2023-07-02T10:55:25;7.43;;;4.47;;
68484;SDS011;55472;50.060;21.960;2023-07-02T10:58:03;9.68;;;4.45;;
68484;SDS011;55472;50.060;21.960;2023-07-02T11:00:47;7.07;;;4.10;;
68484;SDS011;55472;50.060;21.960;2023-07-02T11:03:19;7.85;;;4.30;;
68484;SDS011;55472;50.060;21.960;2023-07-02T11:05:50;7.00;;;4.10;;
68484;SDS011;55472;50.060;21.960;2023-07-02T11:08:17;7.60;;;4.70;;
68484;SDS011;55472;50.060;21.960;2023-07-02T11:10:46;8.05;;;4.95;;
68484;SDS011;55472;50.060;21.960;2023-07-02T11:13:16;9.20;;;4.07;;
68484;SDS011;55472;50.060;21.960;2023-07-02T11:15:44;6.35;;;3.70;;
68484;SDS011;55472;50.060;21.960;2023-07-02T11:18:15;6.15;;;3.50;;
68484;SDS011;55472;50.060;21.960;2023-07-02T11:20:43;7.78;;;3.88;;
68484;SDS011;55472;50.060;21.960;2023-07-02T11:23:24;7.50;;;3.75;;
68484;SDS011;55472;50.060;21.960;2023-07-02T11:25:58;7.07;;;3.90;;
68484;SDS011;55472;50.060;21.960;2023-07-02T11:28:27;6.93;;;3.92;;
68484;SDS011;55472;50.060;21.960;2023-07-02T11:30:55;7.28;;;3.92;;
68484;SDS011;55472;50.060;21.960;2023-07-02T11:36:22;7.35;;;3.78;;
68484;SDS011;55472;50.060;21.960;2023-07-02T11:38:50;8.47;;;4.10;;
68484;SDS011;55472;50.060;21.960;2023-07-02T11:41:17;8.77;;;4.20;;
68484;SDS011;55472;50.060;21.960;2023-07-02T11:43:44;6.50;;;3.95;;
68484;SDS011;55472;50.060;21.960;2023-07-02T11:46:11;8.88;;;3.85;;
68484;SDS011;55472;50.060;21.960;2023-07-02T11:48:37;9.50;;;3.92;;
68484;SDS011;55472;50.060;21.960;2023-07-02T11:51:03;6.77;;;4.23;;
68484;SDS011;55472;50.060;21.960;2023-07-02T11:53:29;6.68;;;3.75;;
68484;SDS011;55472;50.060;21.960;2023-07-02T11:55:55;7.72;;;4.10;;
68484;SDS011;55472;50.060;21.960;2023-07-02T11:58:22;7.95;;;4.20;;
68484;SDS011;55472;50.060;21.960;2023-07-02T12:00:48;7.87;;;3.90;;
68484;SDS011;55472;50.060;21.960;2023-07-02T12:03:14;8.57;;;3.80;;
68484;SDS011;55472;50.060;21.960;2023-07-02T12:05:40;8.38;;;4.10;;
68484;SDS011;55472;50.060;21.960;2023-07-02T12:08:06;8.63;;;3.67;;
68484;SDS011;55472;50.060;21.960;2023-07-02T12:10:33;7.68;;;3.45;;
68484;SDS011;55472;50.060;21.960;2023-07-02T12:12:59;7.27;;;3.80;;
68484;SDS011;55472;50.060;21.960;2023-07-02T12:15:25;9.23;;;4.05;;
68484;SDS011;55472;50.060;21.960;2023-07-02T12:17:52;5.93;;;3.63;;
68484;SDS011;55472;50.060;21.960;2023-07-02T12:20:18;9.57;;;4.07;;
68484;SDS011;55472;50.060;21.960;2023-07-02T12:22:44;7.32;;;3.60;;
68484;SDS011;55472;50.060;21.960;2023-07-02T12:25:10;8.77;;;4.53;;
68484;SDS011;55472;50.060;21.960;2023-07-02T12:27:36;6.90;;;3.45;;
68484;SDS011;55472;50.060;21.960;2023-07-02T12:30:02;6.32;;;3.20;;
68484;SDS011;55472;50.060;21.960;2023-07-02T12:32:29;8.10;;;3.03;;
68484;SDS011;55472;50.060;21.960;2023-07-02T12:34:55;7.93;;;3.55;;
68484;SDS011;55472;50.060;21.960;2023-07-02T12:37:25;5.83;;;3.20;;
68484;SDS011;55472;50.060;21.960;2023-07-02T12:39:51;6.72;;;3.60;;
68484;SDS011;55472;50.060;21.960;2023-07-02T12:42:17;7.68;;;3.90;;
68484;SDS011;55472;50.060;21.960;2023-07-02T12:44:43;9.43;;;3.53;;
68484;SDS011;55472;50.060;21.960;2023-07-02T12:47:09;8.70;;;3.67;;
68484;SDS011;55472;50.060;21.960;2023-07-02T12:49:35;6.67;;;3.40;;
68484;SDS011;55472;50.060;21.960;2023-07-02T12:52:02;8.35;;;3.53;;
68484;SDS011;55472;50.060;21.960;2023-07-02T12:54:28;7.30;;;3.40;;
68484;SDS011;55472;50.060;21.960;2023-07-02T12:56:54;6.05;;;3.60;;
68484;SDS011;55472;50.060;21.960;2023-07-02T12:59:20;5.80;;;3.27;;
68484;SDS011;55472;50.060;21.960;2023-07-02T13:01:47;6.40;;;3.73;;
68484;SDS011;55472;50.060;21.960;2023-07-02T13:04:13;7.07;;;3.83;;
68484;SDS011;55472;50.060;21.960;2023-07-02T13:06:40;6.20;;;3.75;;
68484;SDS011;55472;50.060;21.960;2023-07-02T13:09:07;20.25;;;13.02;;
68484;SDS011;55472;50.060;21.960;2023-07-02T13:11:34;8.75;;;4.45;;
68484;SDS011;55472;50.060;21.960;2023-07-02T13:14:00;9.80;;;4.00;;
68484;SDS011;55472;50.060;21.960;2023-07-02T13:16:26;8.70;;;4.82;;
68484;SDS011;55472;50.060;21.960;2023-07-02T13:18:52;9.68;;;5.25;;
68484;SDS011;55472;50.060;21.960;2023-07-02T13:21:21;6.20;;;3.47;;
68484;SDS011;55472;50.060;21.960;2023-07-02T13:23:47;9.50;;;3.40;;
68484;SDS011;55472;50.060;21.960;2023-07-02T13:26:13;9.03;;;3.20;;
68484;SDS011;55472;50.060;21.960;2023-07-02T13:28:39;6.22;;;3.40;;
68484;SDS011;55472;50.060;21.960;2023-07-02T13:31:06;6.43;;;3.22;;
68484;SDS011;55472;50.060;21.960;2023-07-02T13:33:34;5.63;;;3.40;;
68484;SDS011;55472;50.060;21.960;2023-07-02T13:36:00;7.65;;;3.50;;
68484;SDS011;55472;50.060;21.960;2023-07-02T13:38:26;6.73;;;3.27;;
68484;SDS011;55472;50.060;21.960;2023-07-02T13:40:52;6.20;;;3.13;;
68484;SDS011;55472;50.060;21.960;2023-07-02T13:43:18;9.05;;;3.45;;
68484;SDS011;55472;50.060;21.960;2023-07-02T13:45:45;5.85;;;2.88;;
68484;SDS011;55472;50.060;21.960;2023-07-02T13:48:11;6.77;;;3.00;;
68484;SDS011;55472;50.060;21.960;2023-07-02T13:50:37;5.88;;;2.72;;
68484;SDS011;55472;50.060;21.960;2023-07-02T13:53:03;4.97;;;2.55;;
68484;SDS011;55472;50.060;21.960;2023-07-02T13:55:29;6.15;;;3.00;;
68484;SDS011;55472;50.060;21.960;2023-07-02T13:57:56;5.45;;;2.90;;
68484;SDS011;55472;50.060;21.960;2023-07-02T14:00:23;5.80;;;3.00;;
68484;SDS011;55472;50.060;21.960;2023-07-02T14:02:49;8.20;;;3.25;;
68484;SDS011;55472;50.060;21.960;2023-07-02T14:05:16;6.07;;;2.92;;
68484;SDS011;55472;50.060;21.960;2023-07-02T14:07:42;6.03;;;2.80;;
68484;SDS011;55472;50.060;21.960;2023-07-02T14:10:08;7.63;;;2.85;;
68484;SDS011;55472;50.060;21.960;2023-07-02T14:12:35;5.00;;;2.83;;
68484;SDS011;55472;50.060;21.960;2023-07-02T14:15:02;5.85;;;2.90;;
68484;SDS011;55472;50.060;21.960;2023-07-02T14:17:29;7.03;;;2.75;;
68484;SDS011;55472;50.060;21.960;2023-07-02T14:19:55;7.50;;;2.88;;
68484;SDS011;55472;50.060;21.960;2023-07-02T14:22:21;6.82;;;3.05;;
68484;SDS011;55472;50.060;21.960;2023-07-02T14:24:47;6.77;;;3.30;;
68484;SDS011;55472;50.060;21.960;2023-07-02T14:27:13;5.88;;;3.58;;
68484;SDS011;55472;50.060;21.960;2023-07-02T14:29:40;6.13;;;2.90;;
68484;SDS011;55472;50.060;21.960;2023-07-02T14:32:06;5.68;;;3.10;;
68484;SDS011;55472;50.060;21.960;2023-07-02T14:34:33;6.80;;;3.13;;
68484;SDS011;55472;50.060;21.960;2023-07-02T14:36:59;5.65;;;2.53;;
68484;SDS011;55472;50.060;21.960;2023-07-02T14:39:27;5.22;;;2.75;;
68484;SDS011;55472;50.060;21.960;2023-07-02T14:41:53;6.03;;;2.65;;